This is the latest recevied weather packets stored in our database for station/object N5SRF. If no packets are shown the sender has not sent any weather packets the latest 10 day(s).
| Time | Temp. | Humidity | Pressure | Rain* | Wind** | Luminosity | Snow |
|---|---|---|---|---|---|---|---|
| 1787948188 | 33.89° C | 56% | 1018.9 hPa | 0 mm | - | 111 W/m² | - |
| 1787947886 | 33.89° C | 55% | 1018.7 hPa | 0 mm | - | 101 W/m² | - |
| 1787947581 | 34.44° C | 54% | 1019.1 hPa | 0 mm | - | 86 W/m² | - |
| 1787947274 | 35.56° C | 52% | 1019 hPa | 0 mm | - | 82 W/m² | - |
| 1787946969 | 36.11° C | 50% | 1019.2 hPa | 0 mm | - | 95 W/m² | - |
| 1787946667 | 36.67° C | 49% | 1019.4 hPa | 0 mm | - | 386 W/m² | - |
| 1787946362 | 37.22° C | 49% | 1019 hPa | 0 mm | - | 687 W/m² | - |
| 1787946061 | 37.22° C | 48% | 1019.2 hPa | 0 mm | - | 724 W/m² | - |
| 1787945756 | 37.78° C | 46% | 1019.5 hPa | 0 mm | - | 718 W/m² | - |
| 1787945452 | 37.78° C | 47% | 1019.6 hPa | 0 mm | - | 719 W/m² | - |
| 1787945148 | 37.22° C | 49% | 1019.8 hPa | 0 mm | - | 728 W/m² | - |
| 1787944845 | 36.67° C | 49% | 1019.8 hPa | 0 mm | - | 728 W/m² | - |
| 1787944539 | 37.78° C | 48% | 1020 hPa | 0 mm | - | 730 W/m² | - |
| 1787944236 | 37.22° C | 49% | 1020.1 hPa | 0 mm | - | 739 W/m² | - |
| 1787943935 | 36.67° C | 52% | 1020.1 hPa | 0 mm | - | 743 W/m² | - |
| 1787943631 | 36.11° C | 53% | 1020.3 hPa | 0 mm | - | 745 W/m² | - |
| 1787943330 | 36.11° C | 54% | 1020.6 hPa | 0 mm | - | 749 W/m² | - |
| 1787943026 | 36.67° C | 52% | 1020.5 hPa | 0 mm | - | 753 W/m² | - |
| 1787942720 | 35.56° C | 54% | 1020.6 hPa | 0 mm | - | 756 W/m² | - |
| 1787942421 | 36.67° C | 53% | 1020.9 hPa | 0 mm | - | 754 W/m² | - |
| 1787942115 | 35.56° C | 54% | 1020.6 hPa | 0 mm | - | 758 W/m² | - |
| 1787941811 | 35.56° C | 55% | 1020.8 hPa | 0 mm | - | 769 W/m² | - |
| 1787941509 | 36.11° C | 54% | 1020.8 hPa | 0 mm | - | 768 W/m² | - |
| 1787941204 | 35.56° C | 56% | 1020.9 hPa | 0 mm | - | 762 W/m² | - |
| 1787940899 | 35° C | 57% | 1020.8 hPa | 0 mm | - | 764 W/m² | - |
* Rain latest hour (hover to see other rain measurements)
** Current wind speed in m/s (hover to see current wind gust speed)